sensor_id;sensor_type;location;lat;lon;timestamp;P1;durP1;ratioP1;P2;durP2;ratioP2
24873;SDS011;12945;42.648;23.370;2022-09-13T00:00:18;10.98;;;4.95;;
24873;SDS011;12945;42.648;23.370;2022-09-13T00:02:44;7.25;;;5.10;;
24873;SDS011;12945;42.648;23.370;2022-09-13T00:05:09;10.00;;;4.72;;
24873;SDS011;12945;42.648;23.370;2022-09-13T00:07:34;7.43;;;4.97;;
24873;SDS011;12945;42.648;23.370;2022-09-13T00:10:00;10.43;;;5.78;;
24873;SDS011;12945;42.648;23.370;2022-09-13T00:12:25;5.85;;;4.50;;
24873;SDS011;12945;42.648;23.370;2022-09-13T00:14:50;7.95;;;5.10;;
24873;SDS011;12945;42.648;23.370;2022-09-13T00:17:15;8.32;;;5.13;;
24873;SDS011;12945;42.648;23.370;2022-09-13T00:19:41;7.22;;;4.88;;
24873;SDS011;12945;42.648;23.370;2022-09-13T00:22:06;5.93;;;4.85;;
24873;SDS011;12945;42.648;23.370;2022-09-13T00:24:32;7.15;;;5.22;;
24873;SDS011;12945;42.648;23.370;2022-09-13T00:26:58;8.52;;;5.53;;
24873;SDS011;12945;42.648;23.370;2022-09-13T00:29:24;7.35;;;4.93;;
24873;SDS011;12945;42.648;23.370;2022-09-13T00:31:49;11.45;;;5.50;;
24873;SDS011;12945;42.648;23.370;2022-09-13T00:34:14;8.50;;;5.30;;
24873;SDS011;12945;42.648;23.370;2022-09-13T00:36:39;9.20;;;5.60;;
24873;SDS011;12945;42.648;23.370;2022-09-13T00:39:05;11.20;;;5.40;;
24873;SDS011;12945;42.648;23.370;2022-09-13T00:41:30;10.00;;;5.07;;
24873;SDS011;12945;42.648;23.370;2022-09-13T00:43:57;7.07;;;5.15;;
24873;SDS011;12945;42.648;23.370;2022-09-13T00:46:42;7.93;;;5.60;;
24873;SDS011;12945;42.648;23.370;2022-09-13T00:51:33;7.75;;;5.13;;
24873;SDS011;12945;42.648;23.370;2022-09-13T00:53:58;6.95;;;5.05;;
24873;SDS011;12945;42.648;23.370;2022-09-13T00:56:27;8.73;;;5.55;;
24873;SDS011;12945;42.648;23.370;2022-09-13T00:58:54;11.27;;;5.07;;
24873;SDS011;12945;42.648;23.370;2022-09-13T01:01:23;9.93;;;4.90;;
24873;SDS011;12945;42.648;23.370;2022-09-13T01:03:50;7.70;;;5.30;;
24873;SDS011;12945;42.648;23.370;2022-09-13T01:06:17;7.45;;;5.18;;
24873;SDS011;12945;42.648;23.370;2022-09-13T01:08:43;7.18;;;5.43;;
24873;SDS011;12945;42.648;23.370;2022-09-13T01:11:10;9.80;;;5.45;;
24873;SDS011;12945;42.648;23.370;2022-09-13T01:13:37;11.02;;;5.53;;
24873;SDS011;12945;42.648;23.370;2022-09-13T01:16:03;7.90;;;5.22;;
24873;SDS011;12945;42.648;23.370;2022-09-13T01:18:28;10.48;;;5.10;;
24873;SDS011;12945;42.648;23.370;2022-09-13T01:21:01;8.80;;;5.65;;
24873;SDS011;12945;42.648;23.370;2022-09-13T01:26:33;9.63;;;5.72;;
24873;SDS011;12945;42.648;23.370;2022-09-13T01:32:19;10.18;;;4.72;;
24873;SDS011;12945;42.648;23.370;2022-09-13T01:50:19;7.70;;;5.13;;
24873;SDS011;12945;42.648;23.370;2022-09-13T01:52:55;10.23;;;4.85;;
24873;SDS011;12945;42.648;23.370;2022-09-13T01:58:04;10.43;;;4.68;;
24873;SDS011;12945;42.648;23.370;2022-09-13T02:00:33;8.38;;;5.32;;
24873;SDS011;12945;42.648;23.370;2022-09-13T02:03:08;7.68;;;5.30;;
24873;SDS011;12945;42.648;23.370;2022-09-13T02:08:07;9.98;;;5.40;;
24873;SDS011;12945;42.648;23.370;2022-09-13T02:10:37;10.85;;;4.90;;
24873;SDS011;12945;42.648;23.370;2022-09-13T02:13:05;5.78;;;4.88;;
24873;SDS011;12945;42.648;23.370;2022-09-13T02:15:48;8.70;;;4.95;;
24873;SDS011;12945;42.648;23.370;2022-09-13T02:18:19;7.38;;;4.80;;
24873;SDS011;12945;42.648;23.370;2022-09-13T02:20:46;7.22;;;4.70;;
24873;SDS011;12945;42.648;23.370;2022-09-13T02:23:13;9.32;;;4.75;;
24873;SDS011;12945;42.648;23.370;2022-09-13T02:25:40;8.13;;;4.68;;
24873;SDS011;12945;42.648;23.370;2022-09-13T02:28:08;9.35;;;4.88;;
24873;SDS011;12945;42.648;23.370;2022-09-13T02:30:36;8.15;;;5.30;;
24873;SDS011;12945;42.648;23.370;2022-09-13T02:33:07;7.93;;;5.23;;
24873;SDS011;12945;42.648;23.370;2022-09-13T02:35:44;11.65;;;4.97;;
24873;SDS011;12945;42.648;23.370;2022-09-13T02:38:30;6.28;;;4.88;;
24873;SDS011;12945;42.648;23.370;2022-09-13T02:40:57;9.73;;;4.80;;
24873;SDS011;12945;42.648;23.370;2022-09-13T02:43:27;9.10;;;5.25;;
24873;SDS011;12945;42.648;23.370;2022-09-13T02:48:24;9.00;;;5.07;;
24873;SDS011;12945;42.648;23.370;2022-09-13T02:50:58;10.43;;;5.40;;
24873;SDS011;12945;42.648;23.370;2022-09-13T02:55:52;6.00;;;4.27;;
24873;SDS011;12945;42.648;23.370;2022-09-13T02:58:42;8.10;;;4.57;;
24873;SDS011;12945;42.648;23.370;2022-09-13T03:01:04;9.23;;;5.13;;
24873;SDS011;12945;42.648;23.370;2022-09-13T03:03:30;6.88;;;5.00;;
24873;SDS011;12945;42.648;23.370;2022-09-13T03:05:55;6.82;;;4.95;;
24873;SDS011;12945;42.648;23.370;2022-09-13T03:08:20;12.07;;;5.07;;
24873;SDS011;12945;42.648;23.370;2022-09-13T03:11:02;9.00;;;5.00;;
24873;SDS011;12945;42.648;23.370;2022-09-13T03:13:39;6.85;;;5.05;;
24873;SDS011;12945;42.648;23.370;2022-09-13T03:26:34;6.55;;;4.50;;
24873;SDS011;12945;42.648;23.370;2022-09-13T03:31:37;9.10;;;4.63;;
24873;SDS011;12945;42.648;23.370;2022-09-13T03:34:07;7.18;;;4.63;;
24873;SDS011;12945;42.648;23.370;2022-09-13T03:36:40;12.30;;;4.88;;
24873;SDS011;12945;42.648;23.370;2022-09-13T03:41:42;8.88;;;4.93;;
24873;SDS011;12945;42.648;23.370;2022-09-13T03:44:09;9.98;;;4.32;;
24873;SDS011;12945;42.648;23.370;2022-09-13T03:49:02;7.40;;;5.30;;
24873;SDS011;12945;42.648;23.370;2022-09-13T03:51:29;8.30;;;4.95;;
24873;SDS011;12945;42.648;23.370;2022-09-13T03:53:56;6.95;;;5.32;;
24873;SDS011;12945;42.648;23.370;2022-09-13T03:56:23;13.60;;;5.65;;
24873;SDS011;12945;42.648;23.370;2022-09-13T03:58:50;10.30;;;7.63;;
24873;SDS011;12945;42.648;23.370;2022-09-13T04:01:19;16.45;;;10.27;;
24873;SDS011;12945;42.648;23.370;2022-09-13T04:03:44;18.40;;;10.20;;
24873;SDS011;12945;42.648;23.370;2022-09-13T04:06:10;11.48;;;5.10;;
24873;SDS011;12945;42.648;23.370;2022-09-13T04:08:35;15.25;;;10.90;;
24873;SDS011;12945;42.648;23.370;2022-09-13T04:11:00;10.80;;;5.82;;
24873;SDS011;12945;42.648;23.370;2022-09-13T04:13:26;10.23;;;6.72;;
24873;SDS011;12945;42.648;23.370;2022-09-13T04:15:51;8.93;;;5.40;;
24873;SDS011;12945;42.648;23.370;2022-09-13T04:18:17;8.48;;;4.72;;
24873;SDS011;12945;42.648;23.370;2022-09-13T04:20:42;7.60;;;4.18;;
24873;SDS011;12945;42.648;23.370;2022-09-13T04:23:08;6.82;;;4.70;;
24873;SDS011;12945;42.648;23.370;2022-09-13T04:25:33;5.95;;;4.95;;
24873;SDS011;12945;42.648;23.370;2022-09-13T04:27:58;10.35;;;5.45;;
24873;SDS011;12945;42.648;23.370;2022-09-13T04:30:24;9.52;;;4.93;;
24873;SDS011;12945;42.648;23.370;2022-09-13T04:32:49;12.88;;;5.22;;
24873;SDS011;12945;42.648;23.370;2022-09-13T04:35:15;7.18;;;4.93;;
24873;SDS011;12945;42.648;23.370;2022-09-13T04:37:44;9.98;;;6.43;;
24873;SDS011;12945;42.648;23.370;2022-09-13T04:40:09;8.38;;;6.10;;
24873;SDS011;12945;42.648;23.370;2022-09-13T04:42:35;13.50;;;6.00;;
24873;SDS011;12945;42.648;23.370;2022-09-13T04:45:01;6.82;;;4.40;;
24873;SDS011;12945;42.648;23.370;2022-09-13T04:47:26;7.68;;;5.15;;
24873;SDS011;12945;42.648;23.370;2022-09-13T04:49:51;7.35;;;3.90;;
24873;SDS011;12945;42.648;23.370;2022-09-13T04:52:17;12.15;;;5.57;;
24873;SDS011;12945;42.648;23.370;2022-09-13T04:54:42;9.35;;;4.78;;
24873;SDS011;12945;42.648;23.370;2022-09-13T04:57:07;6.55;;;4.72;;
24873;SDS011;12945;42.648;23.370;2022-09-13T04:59:33;7.75;;;4.50;;
24873;SDS011;12945;42.648;23.370;2022-09-13T05:01:58;9.88;;;4.80;;
24873;SDS011;12945;42.648;23.370;2022-09-13T05:04:23;7.20;;;4.90;;
24873;SDS011;12945;42.648;23.370;2022-09-13T05:06:49;7.00;;;4.72;;
24873;SDS011;12945;42.648;23.370;2022-09-13T05:09:14;12.73;;;4.78;;
24873;SDS011;12945;42.648;23.370;2022-09-13T05:11:40;8.27;;;4.53;;
24873;SDS011;12945;42.648;23.370;2022-09-13T05:14:05;9.98;;;4.32;;
24873;SDS011;12945;42.648;23.370;2022-09-13T05:16:31;11.85;;;4.95;;
24873;SDS011;12945;42.648;23.370;2022-09-13T05:18:56;11.00;;;5.40;;
24873;SDS011;12945;42.648;23.370;2022-09-13T05:21:22;7.32;;;4.65;;
24873;SDS011;12945;42.648;23.370;2022-09-13T05:23:48;9.00;;;4.97;;
24873;SDS011;12945;42.648;23.370;2022-09-13T05:26:13;17.55;;;5.15;;
24873;SDS011;12945;42.648;23.370;2022-09-13T05:28:39;11.05;;;4.82;;
24873;SDS011;12945;42.648;23.370;2022-09-13T05:31:05;6.97;;;4.30;;
24873;SDS011;12945;42.648;23.370;2022-09-13T05:33:33;12.75;;;4.78;;
24873;SDS011;12945;42.648;23.370;2022-09-13T05:35:58;15.60;;;5.40;;
24873;SDS011;12945;42.648;23.370;2022-09-13T05:38:24;5.60;;;4.20;;
24873;SDS011;12945;42.648;23.370;2022-09-13T05:40:53;10.88;;;4.35;;
24873;SDS011;12945;42.648;23.370;2022-09-13T05:43:20;10.15;;;4.65;;
24873;SDS011;12945;42.648;23.370;2022-09-13T05:45:45;11.95;;;6.13;;
24873;SDS011;12945;42.648;23.370;2022-09-13T05:48:10;11.98;;;4.90;;
24873;SDS011;12945;42.648;23.370;2022-09-13T05:50:36;6.93;;;4.35;;
24873;SDS011;12945;42.648;23.370;2022-09-13T05:53:02;5.05;;;3.72;;
24873;SDS011;12945;42.648;23.370;2022-09-13T05:55:27;11.93;;;3.55;;
24873;SDS011;12945;42.648;23.370;2022-09-13T05:57:53;6.43;;;4.60;;
24873;SDS011;12945;42.648;23.370;2022-09-13T06:00:18;8.55;;;4.88;;
24873;SDS011;12945;42.648;23.370;2022-09-13T06:02:43;6.88;;;4.05;;
24873;SDS011;12945;42.648;23.370;2022-09-13T06:05:09;11.93;;;5.20;;
24873;SDS011;12945;42.648;23.370;2022-09-13T06:07:34;9.27;;;4.13;;
24873;SDS011;12945;42.648;23.370;2022-09-13T06:10:00;11.10;;;4.85;;
24873;SDS011;12945;42.648;23.370;2022-09-13T06:12:25;9.73;;;3.88;;
24873;SDS011;12945;42.648;23.370;2022-09-13T06:14:51;6.13;;;3.97;;
24873;SDS011;12945;42.648;23.370;2022-09-13T06:17:16;7.15;;;4.18;;
24873;SDS011;12945;42.648;23.370;2022-09-13T06:19:41;9.20;;;4.60;;
24873;SDS011;12945;42.648;23.370;2022-09-13T06:22:07;9.43;;;3.92;;
24873;SDS011;12945;42.648;23.370;2022-09-13T06:24:32;6.65;;;3.60;;
24873;SDS011;12945;42.648;23.370;2022-09-13T06:26:59;5.72;;;3.28;;
24873;SDS011;12945;42.648;23.370;2022-09-13T06:29:25;9.85;;;3.58;;
24873;SDS011;12945;42.648;23.370;2022-09-13T06:31:50;6.95;;;3.65;;
24873;SDS011;12945;42.648;23.370;2022-09-13T06:34:15;11.02;;;3.65;;
24873;SDS011;12945;42.648;23.370;2022-09-13T06:36:41;5.50;;;3.92;;
24873;SDS011;12945;42.648;23.370;2022-09-13T06:39:06;6.65;;;3.50;;
24873;SDS011;12945;42.648;23.370;2022-09-13T06:41:32;7.03;;;3.58;;
24873;SDS011;12945;42.648;23.370;2022-09-13T06:43:58;5.85;;;3.55;;
24873;SDS011;12945;42.648;23.370;2022-09-13T06:46:28;8.43;;;3.33;;
24873;SDS011;12945;42.648;23.370;2022-09-13T06:48:53;10.57;;;3.88;;
24873;SDS011;12945;42.648;23.370;2022-09-13T06:51:19;6.25;;;3.97;;
24873;SDS011;12945;42.648;23.370;2022-09-13T06:53:45;8.75;;;3.55;;
24873;SDS011;12945;42.648;23.370;2022-09-13T06:56:15;4.35;;;3.70;;
24873;SDS011;12945;42.648;23.370;2022-09-13T06:58:42;7.55;;;3.83;;
24873;SDS011;12945;42.648;23.370;2022-09-13T07:03:45;7.22;;;3.60;;
24873;SDS011;12945;42.648;23.370;2022-09-13T07:06:12;5.07;;;3.08;;
24873;SDS011;12945;42.648;23.370;2022-09-13T07:08:38;6.47;;;3.38;;
24873;SDS011;12945;42.648;23.370;2022-09-13T07:11:07;4.78;;;3.50;;
24873;SDS011;12945;42.648;23.370;2022-09-13T07:13:33;7.03;;;3.47;;
24873;SDS011;12945;42.648;23.370;2022-09-13T07:16:05;5.97;;;3.22;;
24873;SDS011;12945;42.648;23.370;2022-09-13T07:18:31;7.63;;;4.25;;
24873;SDS011;12945;42.648;23.370;2022-09-13T07:21:00;8.02;;;2.97;;
24873;SDS011;12945;42.648;23.370;2022-09-13T07:23:26;5.07;;;3.38;;
24873;SDS011;12945;42.648;23.370;2022-09-13T07:25:57;7.82;;;3.45;;
24873;SDS011;12945;42.648;23.370;2022-09-13T07:28:29;4.63;;;3.30;;
24873;SDS011;12945;42.648;23.370;2022-09-13T07:30:55;5.65;;;3.70;;
24873;SDS011;12945;42.648;23.370;2022-09-13T07:33:22;5.13;;;2.90;;
24873;SDS011;12945;42.648;23.370;2022-09-13T07:35:53;4.93;;;3.08;;
24873;SDS011;12945;42.648;23.370;2022-09-13T07:38:18;6.15;;;3.35;;
24873;SDS011;12945;42.648;23.370;2022-09-13T07:40:51;5.07;;;3.30;;
24873;SDS011;12945;42.648;23.370;2022-09-13T07:43:16;3.78;;;2.60;;
24873;SDS011;12945;42.648;23.370;2022-09-13T07:45:41;8.82;;;3.40;;
24873;SDS011;12945;42.648;23.370;2022-09-13T07:48:07;3.35;;;2.58;;
24873;SDS011;12945;42.648;23.370;2022-09-13T07:50:32;6.95;;;2.78;;
24873;SDS011;12945;42.648;23.370;2022-09-13T07:52:57;4.93;;;2.63;;
24873;SDS011;12945;42.648;23.370;2022-09-13T07:55:23;4.90;;;2.65;;
24873;SDS011;12945;42.648;23.370;2022-09-13T07:57:48;8.40;;;2.90;;
24873;SDS011;12945;42.648;23.370;2022-09-13T08:00:13;6.13;;;3.00;;
24873;SDS011;12945;42.648;23.370;2022-09-13T08:02:39;5.75;;;3.25;;
24873;SDS011;12945;42.648;23.370;2022-09-13T08:05:04;5.30;;;3.30;;
24873;SDS011;12945;42.648;23.370;2022-09-13T08:07:29;6.32;;;3.00;;
24873;SDS011;12945;42.648;23.370;2022-09-13T08:09:57;4.57;;;2.67;;
24873;SDS011;12945;42.648;23.370;2022-09-13T08:12:22;4.75;;;2.58;;
24873;SDS011;12945;42.648;23.370;2022-09-13T08:14:47;6.07;;;2.80;;
24873;SDS011;12945;42.648;23.370;2022-09-13T08:17:12;6.32;;;3.25;;
24873;SDS011;12945;42.648;23.370;2022-09-13T08:19:38;9.55;;;2.55;;
24873;SDS011;12945;42.648;23.370;2022-09-13T08:22:03;4.45;;;2.63;;
24873;SDS011;12945;42.648;23.370;2022-09-13T08:24:28;5.97;;;2.90;;
24873;SDS011;12945;42.648;23.370;2022-09-13T08:26:54;9.48;;;2.55;;
24873;SDS011;12945;42.648;23.370;2022-09-13T08:29:19;6.38;;;3.00;;
24873;SDS011;12945;42.648;23.370;2022-09-13T08:31:45;4.70;;;2.50;;
24873;SDS011;12945;42.648;23.370;2022-09-13T08:34:14;5.53;;;2.20;;
24873;SDS011;12945;42.648;23.370;2022-09-13T08:36:39;5.40;;;2.80;;
24873;SDS011;12945;42.648;23.370;2022-09-13T08:39:05;6.63;;;2.40;;
24873;SDS011;12945;42.648;23.370;2022-09-13T08:44:10;2.45;;;2.03;;
24873;SDS011;12945;42.648;23.370;2022-09-13T08:46:45;4.38;;;2.28;;
24873;SDS011;12945;42.648;23.370;2022-09-13T08:49:19;6.38;;;2.92;;
24873;SDS011;12945;42.648;23.370;2022-09-13T08:54:14;4.55;;;2.42;;
24873;SDS011;12945;42.648;23.370;2022-09-13T09:07:03;5.57;;;2.13;;
24873;SDS011;12945;42.648;23.370;2022-09-13T09:09:31;7.47;;;2.13;;
24873;SDS011;12945;42.648;23.370;2022-09-13T09:12:13;4.22;;;2.58;;
24873;SDS011;12945;42.648;23.370;2022-09-13T09:14:50;5.32;;;2.20;;
24873;SDS011;12945;42.648;23.370;2022-09-13T09:17:21;3.03;;;1.83;;
24873;SDS011;12945;42.648;23.370;2022-09-13T09:19:48;7.82;;;1.80;;
24873;SDS011;12945;42.648;23.370;2022-09-13T09:22:19;5.53;;;2.13;;
24873;SDS011;12945;42.648;23.370;2022-09-13T09:24:55;5.45;;;1.60;;
24873;SDS011;12945;42.648;23.370;2022-09-13T09:27:21;5.10;;;1.70;;
24873;SDS011;12945;42.648;23.370;2022-09-13T09:29:47;3.15;;;2.00;;
24873;SDS011;12945;42.648;23.370;2022-09-13T09:32:29;3.85;;;1.80;;
24873;SDS011;12945;42.648;23.370;2022-09-13T09:35:15;4.38;;;1.90;;
24873;SDS011;12945;42.648;23.370;2022-09-13T09:37:45;2.50;;;1.90;;
24873;SDS011;12945;42.648;23.370;2022-09-13T09:40:12;4.57;;;2.13;;
24873;SDS011;12945;42.648;23.370;2022-09-13T09:42:40;4.53;;;2.38;;
24873;SDS011;12945;42.648;23.370;2022-09-13T09:45:27;2.67;;;2.13;;
24873;SDS011;12945;42.648;23.370;2022-09-13T09:47:51;4.55;;;2.50;;
24873;SDS011;12945;42.648;23.370;2022-09-13T09:52:48;2.67;;;1.90;;
24873;SDS011;12945;42.648;23.370;2022-09-13T09:57:48;3.22;;;2.00;;
24873;SDS011;12945;42.648;23.370;2022-09-13T10:00:14;2.70;;;1.98;;
24873;SDS011;12945;42.648;23.370;2022-09-13T10:02:42;6.18;;;2.13;;
24873;SDS011;12945;42.648;23.370;2022-09-13T10:05:08;3.75;;;1.85;;
24873;SDS011;12945;42.648;23.370;2022-09-13T10:07:34;2.78;;;1.90;;
24873;SDS011;12945;42.648;23.370;2022-09-13T10:10:04;2.88;;;2.10;;
24873;SDS011;12945;42.648;23.370;2022-09-13T10:12:31;2.10;;;1.83;;
24873;SDS011;12945;42.648;23.370;2022-09-13T10:17:35;2.33;;;2.13;;
24873;SDS011;12945;42.648;23.370;2022-09-13T10:20:04;2.58;;;1.70;;
24873;SDS011;12945;42.648;23.370;2022-09-13T10:22:44;3.15;;;2.22;;
24873;SDS011;12945;42.648;23.370;2022-09-13T10:25:23;3.17;;;2.00;;
24873;SDS011;12945;42.648;23.370;2022-09-13T10:27:51;5.97;;;2.17;;
24873;SDS011;12945;42.648;23.370;2022-09-13T10:30:37;7.32;;;2.28;;
24873;SDS011;12945;42.648;23.370;2022-09-13T10:33:03;3.90;;;2.03;;
24873;SDS011;12945;42.648;23.370;2022-09-13T10:35:29;3.72;;;2.05;;
24873;SDS011;12945;42.648;23.370;2022-09-13T10:37:54;7.20;;;2.10;;
24873;SDS011;12945;42.648;23.370;2022-09-13T10:40:23;3.38;;;2.13;;
24873;SDS011;12945;42.648;23.370;2022-09-13T10:42:54;5.18;;;1.90;;
24873;SDS011;12945;42.648;23.370;2022-09-13T10:45:21;2.40;;;1.50;;
24873;SDS011;12945;42.648;23.370;2022-09-13T10:47:48;2.42;;;1.52;;
24873;SDS011;12945;42.648;23.370;2022-09-13T10:50:22;7.28;;;1.80;;
24873;SDS011;12945;42.648;23.370;2022-09-13T10:52:49;4.32;;;1.80;;
24873;SDS011;12945;42.648;23.370;2022-09-13T10:57:40;4.10;;;1.90;;
24873;SDS011;12945;42.648;23.370;2022-09-13T11:00:06;5.78;;;2.45;;
24873;SDS011;12945;42.648;23.370;2022-09-13T11:02:47;4.60;;;1.70;;
24873;SDS011;12945;42.648;23.370;2022-09-13T11:05:28;3.75;;;1.75;;
24873;SDS011;12945;42.648;23.370;2022-09-13T11:14:00;3.15;;;1.90;;
24873;SDS011;12945;42.648;23.370;2022-09-13T11:16:18;4.07;;;2.67;;
24873;SDS011;12945;42.648;23.370;2022-09-13T11:46:38;5.88;;;1.63;;
24873;SDS011;12945;42.648;23.370;2022-09-13T11:51:33;4.45;;;1.60;;
24873;SDS011;12945;42.648;23.370;2022-09-13T11:54:15;4.15;;;1.52;;
24873;SDS011;12945;42.648;23.370;2022-09-13T11:56:44;3.92;;;1.50;;
24873;SDS011;12945;42.648;23.370;2022-09-13T11:59:23;3.17;;;1.40;;
24873;SDS011;12945;42.648;23.370;2022-09-13T12:01:52;2.33;;;1.45;;
24873;SDS011;12945;42.648;23.370;2022-09-13T12:04:21;2.00;;;1.80;;
24873;SDS011;12945;42.648;23.370;2022-09-13T12:06:53;2.97;;;1.50;;
24873;SDS011;12945;42.648;23.370;2022-09-13T12:11:46;2.88;;;1.55;;
24873;SDS011;12945;42.648;23.370;2022-09-13T12:14:14;2.10;;;1.55;;
24873;SDS011;12945;42.648;23.370;2022-09-13T12:16:42;2.80;;;1.50;;
24873;SDS011;12945;42.648;23.370;2022-09-13T12:21:37;2.40;;;1.58;;
24873;SDS011;12945;42.648;23.370;2022-09-13T12:24:06;3.00;;;1.77;;
24873;SDS011;12945;42.648;23.370;2022-09-13T12:29:14;6.22;;;1.75;;
24873;SDS011;12945;42.648;23.370;2022-09-13T12:31:41;2.00;;;1.50;;
24873;SDS011;12945;42.648;23.370;2022-09-13T12:34:07;3.50;;;1.70;;
24873;SDS011;12945;42.648;23.370;2022-09-13T12:39:33;4.03;;;1.52;;
24873;SDS011;12945;42.648;23.370;2022-09-13T12:45:32;3.00;;;1.80;;
24873;SDS011;12945;42.648;23.370;2022-09-13T12:53:02;2.47;;;1.80;;
24873;SDS011;12945;42.648;23.370;2022-09-13T13:00:32;1.98;;;1.40;;
24873;SDS011;12945;42.648;23.370;2022-09-13T13:05:40;2.58;;;1.60;;
24873;SDS011;12945;42.648;23.370;2022-09-13T13:10:44;4.07;;;1.55;;
24873;SDS011;12945;42.648;23.370;2022-09-13T13:13:29;4.80;;;1.55;;
24873;SDS011;12945;42.648;23.370;2022-09-13T13:15:59;1.77;;;1.50;;
24873;SDS011;12945;42.648;23.370;2022-09-13T13:23:20;4.53;;;1.70;;
24873;SDS011;12945;42.648;23.370;2022-09-13T13:25:57;4.45;;;1.70;;
24873;SDS011;12945;42.648;23.370;2022-09-13T13:38:48;2.67;;;1.70;;
24873;SDS011;12945;42.648;23.370;2022-09-13T13:46:39;4.07;;;1.55;;
24873;SDS011;12945;42.648;23.370;2022-09-13T13:52:01;4.50;;;2.03;;
24873;SDS011;12945;42.648;23.370;2022-09-13T13:57:20;2.33;;;1.92;;
24873;SDS011;12945;42.648;23.370;2022-09-13T13:59:47;4.95;;;1.88;;
24873;SDS011;12945;42.648;23.370;2022-09-13T14:02:13;3.35;;;1.60;;
24873;SDS011;12945;42.648;23.370;2022-09-13T14:05:02;4.93;;;2.00;;
24873;SDS011;12945;42.648;23.370;2022-09-13T14:10:36;3.85;;;2.25;;
24873;SDS011;12945;42.648;23.370;2022-09-13T14:20:55;3.15;;;1.98;;
24873;SDS011;12945;42.648;23.370;2022-09-13T14:23:20;2.92;;;1.98;;
24873;SDS011;12945;42.648;23.370;2022-09-13T14:25:51;6.22;;;1.90;;
24873;SDS011;12945;42.648;23.370;2022-09-13T14:28:18;2.00;;;1.80;;
24873;SDS011;12945;42.648;23.370;2022-09-13T14:30:45;5.50;;;2.20;;
24873;SDS011;12945;42.648;23.370;2022-09-13T14:36:06;5.95;;;2.83;;
24873;SDS011;12945;42.648;23.370;2022-09-13T14:38:34;4.80;;;2.40;;
24873;SDS011;12945;42.648;23.370;2022-09-13T14:41:02;2.80;;;2.15;;
24873;SDS011;12945;42.648;23.370;2022-09-13T14:43:28;3.80;;;1.85;;
24873;SDS011;12945;42.648;23.370;2022-09-13T14:45:58;2.92;;;1.70;;
24873;SDS011;12945;42.648;23.370;2022-09-13T14:51:04;5.15;;;1.98;;
24873;SDS011;12945;42.648;23.370;2022-09-13T14:53:33;3.25;;;2.30;;
24873;SDS011;12945;42.648;23.370;2022-09-13T14:56:01;2.90;;;1.95;;
24873;SDS011;12945;42.648;23.370;2022-09-13T14:58:28;5.75;;;1.90;;
24873;SDS011;12945;42.648;23.370;2022-09-13T15:01:07;3.13;;;1.93;;
24873;SDS011;12945;42.648;23.370;2022-09-13T15:03:33;4.97;;;2.00;;
24873;SDS011;12945;42.648;23.370;2022-09-13T15:06:00;3.40;;;1.92;;
24873;SDS011;12945;42.648;23.370;2022-09-13T15:10:57;2.80;;;1.92;;
24873;SDS011;12945;42.648;23.370;2022-09-13T15:13:23;3.55;;;1.70;;
24873;SDS011;12945;42.648;23.370;2022-09-13T15:15:48;3.65;;;2.10;;
24873;SDS011;12945;42.648;23.370;2022-09-13T15:20:43;2.23;;;2.00;;
24873;SDS011;12945;42.648;23.370;2022-09-13T15:23:20;3.50;;;1.75;;
24873;SDS011;12945;42.648;23.370;2022-09-13T15:25:51;2.20;;;2.00;;
24873;SDS011;12945;42.648;23.370;2022-09-13T15:28:25;2.08;;;1.88;;
24873;SDS011;12945;42.648;23.370;2022-09-13T15:30:51;2.80;;;2.10;;
24873;SDS011;12945;42.648;23.370;2022-09-13T15:33:24;6.68;;;2.10;;
24873;SDS011;12945;42.648;23.370;2022-09-13T15:35:50;2.67;;;1.85;;
24873;SDS011;12945;42.648;23.370;2022-09-13T15:38:25;5.55;;;1.90;;
24873;SDS011;12945;42.648;23.370;2022-09-13T15:41:11;6.53;;;1.83;;
24873;SDS011;12945;42.648;23.370;2022-09-13T15:43:36;3.03;;;1.95;;
24873;SDS011;12945;42.648;23.370;2022-09-13T15:46:02;5.18;;;2.10;;
24873;SDS011;12945;42.648;23.370;2022-09-13T15:48:29;4.50;;;2.40;;
24873;SDS011;12945;42.648;23.370;2022-09-13T15:51:13;4.78;;;2.00;;
24873;SDS011;12945;42.648;23.370;2022-09-13T15:53:39;2.50;;;2.10;;
24873;SDS011;12945;42.648;23.370;2022-09-13T15:56:08;4.63;;;2.60;;
24873;SDS011;12945;42.648;23.370;2022-09-13T15:58:34;5.05;;;2.30;;
24873;SDS011;12945;42.648;23.370;2022-09-13T16:01:00;3.92;;;2.67;;
24873;SDS011;12945;42.648;23.370;2022-09-13T16:03:25;7.75;;;2.40;;
24873;SDS011;12945;42.648;23.370;2022-09-13T16:05:53;6.72;;;2.60;;
24873;SDS011;12945;42.648;23.370;2022-09-13T16:08:19;4.30;;;2.78;;
24873;SDS011;12945;42.648;23.370;2022-09-13T16:10:44;6.05;;;2.60;;
24873;SDS011;12945;42.648;23.370;2022-09-13T16:13:10;5.72;;;2.60;;
24873;SDS011;12945;42.648;23.370;2022-09-13T16:15:35;5.53;;;2.85;;
24873;SDS011;12945;42.648;23.370;2022-09-13T16:18:01;6.22;;;3.17;;
24873;SDS011;12945;42.648;23.370;2022-09-13T16:20:26;3.72;;;2.60;;
24873;SDS011;12945;42.648;23.370;2022-09-13T16:22:52;7.68;;;2.92;;
24873;SDS011;12945;42.648;23.370;2022-09-13T16:25:17;4.72;;;2.80;;
24873;SDS011;12945;42.648;23.370;2022-09-13T16:27:42;5.97;;;2.90;;
24873;SDS011;12945;42.648;23.370;2022-09-13T16:30:12;5.55;;;3.00;;
24873;SDS011;12945;42.648;23.370;2022-09-13T16:32:37;6.03;;;3.05;;
24873;SDS011;12945;42.648;23.370;2022-09-13T16:35:03;9.35;;;3.15;;
24873;SDS011;12945;42.648;23.370;2022-09-13T16:37:28;4.20;;;3.15;;
24873;SDS011;12945;42.648;23.370;2022-09-13T16:39:56;9.38;;;3.17;;
24873;SDS011;12945;42.648;23.370;2022-09-13T16:42:25;13.10;;;3.10;;
24873;SDS011;12945;42.648;23.370;2022-09-13T16:44:50;4.03;;;3.00;;
24873;SDS011;12945;42.648;23.370;2022-09-13T16:47:15;4.22;;;3.25;;
24873;SDS011;12945;42.648;23.370;2022-09-13T16:49:41;11.25;;;3.80;;
24873;SDS011;12945;42.648;23.370;2022-09-13T16:52:07;5.90;;;3.40;;
24873;SDS011;12945;42.648;23.370;2022-09-13T16:54:33;3.58;;;3.00;;
24873;SDS011;12945;42.648;23.370;2022-09-13T16:56:59;10.85;;;3.22;;
24873;SDS011;12945;42.648;23.370;2022-09-13T16:59:25;9.30;;;3.35;;
24873;SDS011;12945;42.648;23.370;2022-09-13T17:01:50;6.38;;;3.00;;
24873;SDS011;12945;42.648;23.370;2022-09-13T17:04:16;10.98;;;3.42;;
24873;SDS011;12945;42.648;23.370;2022-09-13T17:06:42;9.68;;;3.10;;
24873;SDS011;12945;42.648;23.370;2022-09-13T17:09:07;4.63;;;3.10;;
24873;SDS011;12945;42.648;23.370;2022-09-13T17:11:34;6.50;;;3.08;;
24873;SDS011;12945;42.648;23.370;2022-09-13T17:14:00;4.97;;;3.55;;
24873;SDS011;12945;42.648;23.370;2022-09-13T17:16:27;6.28;;;3.55;;
24873;SDS011;12945;42.648;23.370;2022-09-13T17:18:53;4.63;;;3.30;;
24873;SDS011;12945;42.648;23.370;2022-09-13T17:21:18;5.30;;;3.40;;
24873;SDS011;12945;42.648;23.370;2022-09-13T17:23:44;9.05;;;4.28;;
24873;SDS011;12945;42.648;23.370;2022-09-13T17:26:09;7.05;;;3.42;;
24873;SDS011;12945;42.648;23.370;2022-09-13T17:28:35;6.03;;;3.55;;
24873;SDS011;12945;42.648;23.370;2022-09-13T17:31:00;5.75;;;3.63;;
24873;SDS011;12945;42.648;23.370;2022-09-13T17:33:26;8.32;;;3.65;;
24873;SDS011;12945;42.648;23.370;2022-09-13T17:36:04;11.52;;;3.80;;
24873;SDS011;12945;42.648;23.370;2022-09-13T17:38:31;10.38;;;3.67;;
24873;SDS011;12945;42.648;23.370;2022-09-13T17:41:07;8.05;;;3.70;;
24873;SDS011;12945;42.648;23.370;2022-09-13T17:43:33;7.38;;;3.42;;
24873;SDS011;12945;42.648;23.370;2022-09-13T17:46:02;4.65;;;3.30;;
24873;SDS011;12945;42.648;23.370;2022-09-13T17:48:28;6.97;;;3.60;;
24873;SDS011;12945;42.648;23.370;2022-09-13T17:50:58;3.80;;;3.40;;